sensor_id;sensor_type;location;lat;lon;timestamp;pressure;altitude;pressure_sealevel;temperature;humidity
4981;BME280;2507;50.392;7.482;2023-04-25T00:01:03;100182.25;;;10.17;74.16
4981;BME280;2507;50.392;7.482;2023-04-25T00:03:29;100176.19;;;10.27;74.18
4981;BME280;2507;50.392;7.482;2023-04-25T00:05:55;100173.38;;;10.53;72.69
4981;BME280;2507;50.392;7.482;2023-04-25T00:08:22;100169.53;;;10.57;71.87
4981;BME280;2507;50.392;7.482;2023-04-25T00:10:47;100172.06;;;10.47;71.52
4981;BME280;2507;50.392;7.482;2023-04-25T00:13:14;100176.91;;;10.41;71.51
4981;BME280;2507;50.392;7.482;2023-04-25T00:15:40;100178.25;;;10.46;70.41
4981;BME280;2507;50.392;7.482;2023-04-25T00:18:06;100169.75;;;10.32;71.35
4981;BME280;2507;50.392;7.482;2023-04-25T00:20:32;100172.75;;;10.38;71.84
4981;BME280;2507;50.392;7.482;2023-04-25T00:22:57;100166.91;;;10.46;71.11
4981;BME280;2507;50.392;7.482;2023-04-25T00:25:22;100176.06;;;10.40;70.97
4981;BME280;2507;50.392;7.482;2023-04-25T00:27:48;100178.22;;;10.35;71.30
4981;BME280;2507;50.392;7.482;2023-04-25T00:30:14;100176.88;;;10.18;71.78
4981;BME280;2507;50.392;7.482;2023-04-25T00:32:39;100175.06;;;10.08;72.49
4981;BME280;2507;50.392;7.482;2023-04-25T00:35:04;100183.72;;;9.97;73.73
4981;BME280;2507;50.392;7.482;2023-04-25T00:37:31;100181.94;;;9.98;73.47
4981;BME280;2507;50.392;7.482;2023-04-25T00:39:57;100186.63;;;9.82;74.24
4981;BME280;2507;50.392;7.482;2023-04-25T00:42:24;100188.66;;;9.78;74.00
4981;BME280;2507;50.392;7.482;2023-04-25T00:44:50;100177.19;;;9.68;74.39
4981;BME280;2507;50.392;7.482;2023-04-25T00:47:16;100180.25;;;9.62;74.28
4981;BME280;2507;50.392;7.482;2023-04-25T00:49:41;100171.44;;;9.52;74.45
4981;BME280;2507;50.392;7.482;2023-04-25T00:52:07;100177.09;;;9.46;73.93
4981;BME280;2507;50.392;7.482;2023-04-25T00:54:32;100168.41;;;9.46;73.98
4981;BME280;2507;50.392;7.482;2023-04-25T00:56:58;100171.25;;;9.43;73.70
4981;BME280;2507;50.392;7.482;2023-04-25T00:59:24;100163.47;;;9.30;73.70
4981;BME280;2507;50.392;7.482;2023-04-25T01:01:50;100170.94;;;9.23;74.20
4981;BME280;2507;50.392;7.482;2023-04-25T01:04:15;100174.41;;;9.11;74.30
4981;BME280;2507;50.392;7.482;2023-04-25T01:06:41;100169.28;;;9.10;74.33
4981;BME280;2507;50.392;7.482;2023-04-25T01:09:06;100175.56;;;9.07;74.45
4981;BME280;2507;50.392;7.482;2023-04-25T01:11:32;100173.34;;;8.90;75.02
4981;BME280;2507;50.392;7.482;2023-04-25T01:13:58;100163.09;;;8.75;75.28
4981;BME280;2507;50.392;7.482;2023-04-25T01:16:23;100167.28;;;8.77;75.41
4981;BME280;2507;50.392;7.482;2023-04-25T01:18:52;100163.13;;;8.62;75.75
4981;BME280;2507;50.392;7.482;2023-04-25T01:21:17;100166.28;;;8.55;76.44
4981;BME280;2507;50.392;7.482;2023-04-25T01:23:42;100157.50;;;8.56;76.23
4981;BME280;2507;50.392;7.482;2023-04-25T01:26:10;100165.56;;;8.53;76.69
4981;BME280;2507;50.392;7.482;2023-04-25T01:28:37;100172.06;;;8.47;76.67
4981;BME280;2507;50.392;7.482;2023-04-25T01:31:03;100175.38;;;8.37;77.02
4981;BME280;2507;50.392;7.482;2023-04-25T01:33:29;100171.53;;;8.30;77.29
4981;BME280;2507;50.392;7.482;2023-04-25T01:35:54;100166.28;;;8.30;77.53
4981;BME280;2507;50.392;7.482;2023-04-25T01:38:20;100171.09;;;8.23;78.01
4981;BME280;2507;50.392;7.482;2023-04-25T01:40:45;100172.84;;;8.22;77.29
4981;BME280;2507;50.392;7.482;2023-04-25T01:43:12;100173.38;;;8.15;78.41
4981;BME280;2507;50.392;7.482;2023-04-25T01:45:39;100176.72;;;8.17;77.46
4981;BME280;2507;50.392;7.482;2023-04-25T01:48:08;100184.06;;;8.24;76.88
4981;BME280;2507;50.392;7.482;2023-04-25T01:50:34;100179.97;;;8.20;78.00
4981;BME280;2507;50.392;7.482;2023-04-25T01:52:59;100178.91;;;8.23;77.84
4981;BME280;2507;50.392;7.482;2023-04-25T01:55:25;100177.22;;;8.22;78.42
4981;BME280;2507;50.392;7.482;2023-04-25T01:57:51;100184.91;;;8.25;78.54
4981;BME280;2507;50.392;7.482;2023-04-25T02:00:16;100175.56;;;8.21;78.86
4981;BME280;2507;50.392;7.482;2023-04-25T02:02:41;100186.94;;;8.20;78.72
4981;BME280;2507;50.392;7.482;2023-04-25T02:05:07;100180.91;;;8.19;78.97
4981;BME280;2507;50.392;7.482;2023-04-25T02:07:32;100192.91;;;8.22;79.07
4981;BME280;2507;50.392;7.482;2023-04-25T02:09:58;100182.38;;;8.23;79.16
4981;BME280;2507;50.392;7.482;2023-04-25T02:12:23;100182.47;;;8.22;78.81
4981;BME280;2507;50.392;7.482;2023-04-25T02:14:49;100192.59;;;8.14;79.27
4981;BME280;2507;50.392;7.482;2023-04-25T02:17:15;100188.41;;;8.11;79.30
4981;BME280;2507;50.392;7.482;2023-04-25T02:19:41;100191.38;;;8.19;79.30
4981;BME280;2507;50.392;7.482;2023-04-25T02:22:06;100185.50;;;8.16;79.20
4981;BME280;2507;50.392;7.482;2023-04-25T02:24:31;100196.06;;;8.14;78.94
4981;BME280;2507;50.392;7.482;2023-04-25T02:26:58;100189.25;;;8.12;78.89
4981;BME280;2507;50.392;7.482;2023-04-25T02:29:23;100188.13;;;8.03;79.90
4981;BME280;2507;50.392;7.482;2023-04-25T02:31:49;100189.16;;;8.01;79.51
4981;BME280;2507;50.392;7.482;2023-04-25T02:34:14;100192.38;;;8.04;80.01
4981;BME280;2507;50.392;7.482;2023-04-25T02:36:39;100186.75;;;7.98;80.07
4981;BME280;2507;50.392;7.482;2023-04-25T02:39:04;100194.66;;;7.96;79.88
4981;BME280;2507;50.392;7.482;2023-04-25T02:41:30;100190.72;;;8.03;79.26
4981;BME280;2507;50.392;7.482;2023-04-25T02:43:55;100194.66;;;7.96;79.46
4981;BME280;2507;50.392;7.482;2023-04-25T02:46:20;100198.84;;;7.86;79.10
4981;BME280;2507;50.392;7.482;2023-04-25T02:48:46;100193.09;;;7.81;77.95
4981;BME280;2507;50.392;7.482;2023-04-25T02:51:11;100199.41;;;7.65;78.13
4981;BME280;2507;50.392;7.482;2023-04-25T02:53:37;100200.28;;;7.78;77.92
4981;BME280;2507;50.392;7.482;2023-04-25T02:56:02;100196.63;;;7.80;77.19
4981;BME280;2507;50.392;7.482;2023-04-25T02:58:27;100203.72;;;7.78;77.13
4981;BME280;2507;50.392;7.482;2023-04-25T03:00:53;100201.72;;;7.82;77.38
4981;BME280;2507;50.392;7.482;2023-04-25T03:03:19;100204.25;;;7.71;78.13
4981;BME280;2507;50.392;7.482;2023-04-25T03:05:50;100200.22;;;7.53;79.50
4981;BME280;2507;50.392;7.482;2023-04-25T03:08:16;100212.72;;;7.48;80.17
4981;BME280;2507;50.392;7.482;2023-04-25T03:10:41;100206.25;;;7.53;80.50
4981;BME280;2507;50.392;7.482;2023-04-25T03:13:06;100212.00;;;7.58;80.03
4981;BME280;2507;50.392;7.482;2023-04-25T03:15:32;100211.34;;;7.69;79.40
4981;BME280;2507;50.392;7.482;2023-04-25T03:17:57;100214.97;;;7.66;79.32
4981;BME280;2507;50.392;7.482;2023-04-25T03:20:22;100214.03;;;7.67;79.44
4981;BME280;2507;50.392;7.482;2023-04-25T03:22:48;100225.31;;;7.68;79.80
4981;BME280;2507;50.392;7.482;2023-04-25T03:25:13;100224.06;;;7.73;79.68
4981;BME280;2507;50.392;7.482;2023-04-25T03:27:38;100221.56;;;7.72;80.07
4981;BME280;2507;50.392;7.482;2023-04-25T03:30:04;100224.72;;;7.77;80.57
4981;BME280;2507;50.392;7.482;2023-04-25T03:32:29;100220.53;;;7.74;80.89
4981;BME280;2507;50.392;7.482;2023-04-25T03:34:55;100225.16;;;7.83;80.15
4981;BME280;2507;50.392;7.482;2023-04-25T03:37:20;100227.66;;;7.85;79.89
4981;BME280;2507;50.392;7.482;2023-04-25T03:39:45;100228.34;;;8.01;79.94
4981;BME280;2507;50.392;7.482;2023-04-25T03:42:11;100223.84;;;8.03;79.67
4981;BME280;2507;50.392;7.482;2023-04-25T03:44:36;100214.84;;;7.94;79.95
4981;BME280;2507;50.392;7.482;2023-04-25T03:47:01;100209.91;;;7.90;79.82
4981;BME280;2507;50.392;7.482;2023-04-25T03:49:27;100214.41;;;7.88;79.32
4981;BME280;2507;50.392;7.482;2023-04-25T03:51:52;100211.50;;;7.92;79.19
4981;BME280;2507;50.392;7.482;2023-04-25T03:54:17;100212.88;;;7.98;78.65
4981;BME280;2507;50.392;7.482;2023-04-25T03:56:42;100227.47;;;8.00;78.07
4981;BME280;2507;50.392;7.482;2023-04-25T03:59:08;100231.19;;;8.10;78.18
4981;BME280;2507;50.392;7.482;2023-04-25T04:01:33;100226.25;;;8.18;78.27
4981;BME280;2507;50.392;7.482;2023-04-25T04:03:58;100229.81;;;8.17;77.19
4981;BME280;2507;50.392;7.482;2023-04-25T04:06:23;100230.97;;;8.13;77.53
4981;BME280;2507;50.392;7.482;2023-04-25T04:08:49;100231.06;;;8.12;76.66
4981;BME280;2507;50.392;7.482;2023-04-25T04:11:14;100240.56;;;8.13;77.44
4981;BME280;2507;50.392;7.482;2023-04-25T04:13:39;100243.53;;;8.21;76.81
4981;BME280;2507;50.392;7.482;2023-04-25T04:16:05;100233.38;;;8.16;77.51
4981;BME280;2507;50.392;7.482;2023-04-25T04:18:30;100238.50;;;8.18;77.80
4981;BME280;2507;50.392;7.482;2023-04-25T04:20:55;100233.63;;;8.26;77.57
4981;BME280;2507;50.392;7.482;2023-04-25T04:23:23;100236.41;;;8.23;76.85
4981;BME280;2507;50.392;7.482;2023-04-25T04:25:48;100241.16;;;8.31;77.44
4981;BME280;2507;50.392;7.482;2023-04-25T04:28:13;100238.75;;;8.27;77.33
4981;BME280;2507;50.392;7.482;2023-04-25T04:30:39;100228.41;;;8.26;77.58
4981;BME280;2507;50.392;7.482;2023-04-25T04:33:06;100237.81;;;8.41;76.26
4981;BME280;2507;50.392;7.482;2023-04-25T04:35:32;100236.75;;;8.44;76.64
4981;BME280;2507;50.392;7.482;2023-04-25T04:37:57;100232.19;;;8.60;76.44
4981;BME280;2507;50.392;7.482;2023-04-25T04:40:22;100242.94;;;8.80;76.45
4981;BME280;2507;50.392;7.482;2023-04-25T04:42:48;100250.13;;;9.14;75.23
4981;BME280;2507;50.392;7.482;2023-04-25T04:45:14;100253.34;;;9.78;73.08
4981;BME280;2507;50.392;7.482;2023-04-25T04:47:41;100259.38;;;10.02;71.12
4981;BME280;2507;50.392;7.482;2023-04-25T04:50:07;100262.34;;;10.21;69.44
4981;BME280;2507;50.392;7.482;2023-04-25T04:52:35;100264.00;;;9.98;68.48
4981;BME280;2507;50.392;7.482;2023-04-25T04:55:00;100258.63;;;9.89;69.13
4981;BME280;2507;50.392;7.482;2023-04-25T04:57:26;100260.13;;;9.80;69.88
4981;BME280;2507;50.392;7.482;2023-04-25T04:59:51;100257.19;;;9.85;69.96
4981;BME280;2507;50.392;7.482;2023-04-25T05:02:16;100261.81;;;9.81;69.68
4981;BME280;2507;50.392;7.482;2023-04-25T05:04:42;100260.81;;;9.71;69.96
4981;BME280;2507;50.392;7.482;2023-04-25T05:07:07;100265.88;;;9.62;69.99
4981;BME280;2507;50.392;7.482;2023-04-25T05:09:32;100272.75;;;9.75;69.82
4981;BME280;2507;50.392;7.482;2023-04-25T05:11:58;100277.03;;;9.53;70.06
4981;BME280;2507;50.392;7.482;2023-04-25T05:14:23;100268.56;;;9.37;70.94
4981;BME280;2507;50.392;7.482;2023-04-25T05:16:48;100282.50;;;9.37;70.54
4981;BME280;2507;50.392;7.482;2023-04-25T05:19:13;100273.63;;;9.40;71.07
4981;BME280;2507;50.392;7.482;2023-04-25T05:21:39;100280.81;;;9.49;69.86
4981;BME280;2507;50.392;7.482;2023-04-25T05:24:04;100278.63;;;9.43;69.86
4981;BME280;2507;50.392;7.482;2023-04-25T05:26:29;100285.97;;;9.38;71.30
4981;BME280;2507;50.392;7.482;2023-04-25T05:28:59;100286.44;;;9.19;70.97
4981;BME280;2507;50.392;7.482;2023-04-25T05:31:25;100279.88;;;9.01;71.98
4981;BME280;2507;50.392;7.482;2023-04-25T05:33:50;100280.91;;;8.86;71.15
4981;BME280;2507;50.392;7.482;2023-04-25T05:36:15;100295.06;;;8.71;72.34
4981;BME280;2507;50.392;7.482;2023-04-25T05:38:41;100287.09;;;8.60;72.65
4981;BME280;2507;50.392;7.482;2023-04-25T05:41:06;100287.19;;;8.58;71.62
4981;BME280;2507;50.392;7.482;2023-04-25T05:43:32;100295.75;;;8.60;72.68
4981;BME280;2507;50.392;7.482;2023-04-25T05:45:58;100298.31;;;8.74;72.11
4981;BME280;2507;50.392;7.482;2023-04-25T05:48:23;100297.56;;;8.97;72.78
4981;BME280;2507;50.392;7.482;2023-04-25T05:50:48;100299.09;;;9.25;72.12
4981;BME280;2507;50.392;7.482;2023-04-25T05:53:13;100302.16;;;9.79;70.82
4981;BME280;2507;50.392;7.482;2023-04-25T05:55:39;100310.03;;;10.02;69.60
4981;BME280;2507;50.392;7.482;2023-04-25T05:58:05;100304.34;;;9.85;68.68
4981;BME280;2507;50.392;7.482;2023-04-25T06:00:32;100316.44;;;9.75;69.61
4981;BME280;2507;50.392;7.482;2023-04-25T06:02:57;100314.31;;;9.56;69.21
4981;BME280;2507;50.392;7.482;2023-04-25T06:05:23;100312.34;;;9.47;69.07
4981;BME280;2507;50.392;7.482;2023-04-25T06:07:48;100315.41;;;9.41;70.06
4981;BME280;2507;50.392;7.482;2023-04-25T06:10:13;100325.03;;;9.41;70.91
4981;BME280;2507;50.392;7.482;2023-04-25T06:12:39;100320.84;;;9.38;69.76
4981;BME280;2507;50.392;7.482;2023-04-25T06:15:05;100322.03;;;9.21;70.18
4981;BME280;2507;50.392;7.482;2023-04-25T06:17:30;100324.19;;;9.27;70.32
4981;BME280;2507;50.392;7.482;2023-04-25T06:19:56;100328.19;;;9.33;70.71
4981;BME280;2507;50.392;7.482;2023-04-25T06:22:21;100333.19;;;9.49;70.83
4981;BME280;2507;50.392;7.482;2023-04-25T06:24:46;100329.91;;;9.58;69.59
4981;BME280;2507;50.392;7.482;2023-04-25T06:27:11;100339.94;;;9.64;69.06
4981;BME280;2507;50.392;7.482;2023-04-25T06:29:36;100340.66;;;9.66;69.54
4981;BME280;2507;50.392;7.482;2023-04-25T06:32:02;100335.91;;;9.83;69.02
4981;BME280;2507;50.392;7.482;2023-04-25T06:36:55;100343.94;;;10.40;66.08
4981;BME280;2507;50.392;7.482;2023-04-25T06:39:20;100347.69;;;10.49;66.61
4981;BME280;2507;50.392;7.482;2023-04-25T06:41:48;100344.09;;;10.50;66.16
4981;BME280;2507;50.392;7.482;2023-04-25T06:44:13;100341.41;;;10.62;65.93
4981;BME280;2507;50.392;7.482;2023-04-25T06:46:38;100345.50;;;10.77;65.95
4981;BME280;2507;50.392;7.482;2023-04-25T06:49:04;100344.09;;;10.95;65.40
4981;BME280;2507;50.392;7.482;2023-04-25T06:51:29;100341.09;;;10.78;64.83
4981;BME280;2507;50.392;7.482;2023-04-25T06:53:55;100349.53;;;10.70;64.56
4981;BME280;2507;50.392;7.482;2023-04-25T06:56:21;100351.28;;;10.59;65.33
4981;BME280;2507;50.392;7.482;2023-04-25T06:58:46;100345.22;;;10.35;66.65
4981;BME280;2507;50.392;7.482;2023-04-25T07:01:12;100364.38;;;10.24;66.59
4981;BME280;2507;50.392;7.482;2023-04-25T07:03:37;100365.28;;;10.36;65.49
4981;BME280;2507;50.392;7.482;2023-04-25T07:06:03;100368.81;;;10.23;65.95
4981;BME280;2507;50.392;7.482;2023-04-25T07:08:29;100363.56;;;10.23;66.52
4981;BME280;2507;50.392;7.482;2023-04-25T07:10:54;100367.97;;;10.23;65.85
4981;BME280;2507;50.392;7.482;2023-04-25T07:13:20;100373.22;;;10.23;65.95
4981;BME280;2507;50.392;7.482;2023-04-25T07:15:45;100367.59;;;10.04;65.73
4981;BME280;2507;50.392;7.482;2023-04-25T07:18:10;100367.84;;;10.48;65.92
4981;BME280;2507;50.392;7.482;2023-04-25T07:20:36;100369.56;;;10.71;64.36
4981;BME280;2507;50.392;7.482;2023-04-25T07:23:01;100372.34;;;10.81;63.08
4981;BME280;2507;50.392;7.482;2023-04-25T07:25:26;100368.81;;;11.15;62.63
4981;BME280;2507;50.392;7.482;2023-04-25T07:27:52;100363.59;;;11.37;61.45
4981;BME280;2507;50.392;7.482;2023-04-25T07:30:17;100375.88;;;11.37;61.25
4981;BME280;2507;50.392;7.482;2023-04-25T07:32:42;100365.59;;;11.22;60.06
4981;BME280;2507;50.392;7.482;2023-04-25T07:35:08;100377.50;;;10.93;59.55
4981;BME280;2507;50.392;7.482;2023-04-25T07:37:34;100377.97;;;10.76;59.77
4981;BME280;2507;50.392;7.482;2023-04-25T07:39:59;100374.59;;;10.74;60.47
4981;BME280;2507;50.392;7.482;2023-04-25T07:42:25;100376.19;;;10.88;61.17
4981;BME280;2507;50.392;7.482;2023-04-25T07:44:50;100374.53;;;11.20;61.27
4981;BME280;2507;50.392;7.482;2023-04-25T07:47:23;100377.56;;;11.38;59.80
4981;BME280;2507;50.392;7.482;2023-04-25T07:49:48;100381.13;;;11.25;60.44
4981;BME280;2507;50.392;7.482;2023-04-25T07:52:14;100391.41;;;11.28;60.35
4981;BME280;2507;50.392;7.482;2023-04-25T07:54:39;100394.28;;;11.14;61.04
4981;BME280;2507;50.392;7.482;2023-04-25T07:57:04;100399.94;;;10.97;60.06
4981;BME280;2507;50.392;7.482;2023-04-25T07:59:31;100399.84;;;10.99;60.23
4981;BME280;2507;50.392;7.482;2023-04-25T08:01:57;100405.56;;;11.04;60.78
4981;BME280;2507;50.392;7.482;2023-04-25T08:04:22;100399.28;;;11.17;61.92
4981;BME280;2507;50.392;7.482;2023-04-25T08:06:48;100400.34;;;11.15;60.03
4981;BME280;2507;50.392;7.482;2023-04-25T08:09:13;100397.59;;;11.27;59.73
4981;BME280;2507;50.392;7.482;2023-04-25T08:11:38;100411.94;;;11.57;59.55
4981;BME280;2507;50.392;7.482;2023-04-25T08:14:05;100405.72;;;12.02;58.62
4981;BME280;2507;50.392;7.482;2023-04-25T08:16:30;100405.72;;;12.45;57.29
4981;BME280;2507;50.392;7.482;2023-04-25T08:18:55;100412.25;;;12.61;56.49
4981;BME280;2507;50.392;7.482;2023-04-25T08:21:21;100418.72;;;12.89;55.52
4981;BME280;2507;50.392;7.482;2023-04-25T08:23:46;100411.00;;;12.97;54.50
4981;BME280;2507;50.392;7.482;2023-04-25T08:26:11;100409.97;;;13.29;53.82
4981;BME280;2507;50.392;7.482;2023-04-25T08:28:37;100419.63;;;13.19;52.72
4981;BME280;2507;50.392;7.482;2023-04-25T08:31:02;100423.31;;;12.96;51.85
4981;BME280;2507;50.392;7.482;2023-04-25T08:33:28;100425.59;;;12.69;51.15
4981;BME280;2507;50.392;7.482;2023-04-25T08:35:53;100421.13;;;12.49;51.27
4981;BME280;2507;50.392;7.482;2023-04-25T08:38:18;100420.94;;;12.41;52.72
4981;BME280;2507;50.392;7.482;2023-04-25T08:40:49;100433.22;;;12.09;52.55
4981;BME280;2507;50.392;7.482;2023-04-25T08:43:18;100426.09;;;11.89;52.47
4981;BME280;2507;50.392;7.482;2023-04-25T08:45:44;100438.13;;;11.80;52.65
4981;BME280;2507;50.392;7.482;2023-04-25T08:48:14;100439.56;;;11.95;54.02
4981;BME280;2507;50.392;7.482;2023-04-25T08:50:52;100445.38;;;12.32;53.38
4981;BME280;2507;50.392;7.482;2023-04-25T08:53:25;100443.25;;;12.04;52.73
4981;BME280;2507;50.392;7.482;2023-04-25T08:55:52;100448.91;;;11.99;53.26
4981;BME280;2507;50.392;7.482;2023-04-25T08:58:18;100460.94;;;12.02;52.23
4981;BME280;2507;50.392;7.482;2023-04-25T09:00:46;100463.72;;;11.89;53.03
4981;BME280;2507;50.392;7.482;2023-04-25T09:03:11;100472.56;;;11.66;51.59
4981;BME280;2507;50.392;7.482;2023-04-25T09:05:37;100473.94;;;11.48;52.84
4981;BME280;2507;50.392;7.482;2023-04-25T09:08:03;100482.03;;;11.34;52.95
4981;BME280;2507;50.392;7.482;2023-04-25T09:10:28;100490.03;;;11.21;53.13
4981;BME280;2507;50.392;7.482;2023-04-25T09:13:02;100490.63;;;11.25;53.94
4981;BME280;2507;50.392;7.482;2023-04-25T09:15:28;100496.69;;;11.25;53.87
4981;BME280;2507;50.392;7.482;2023-04-25T09:17:57;100495.84;;;11.14;54.11
4981;BME280;2507;50.392;7.482;2023-04-25T09:20:23;100503.28;;;10.96;54.39
4981;BME280;2507;50.392;7.482;2023-04-25T09:23:00;100508.28;;;10.88;54.77
4981;BME280;2507;50.392;7.482;2023-04-25T09:25:26;100505.38;;;10.80;55.04
4981;BME280;2507;50.392;7.482;2023-04-25T09:27:53;100512.34;;;10.92;55.98
4981;BME280;2507;50.392;7.482;2023-04-25T09:30:29;100513.09;;;11.29;56.60
4981;BME280;2507;50.392;7.482;2023-04-25T09:32:57;100518.00;;;11.45;55.49
4981;BME280;2507;50.392;7.482;2023-04-25T09:35:24;100524.94;;;11.46;55.57
4981;BME280;2507;50.392;7.482;2023-04-25T09:37:51;100523.03;;;11.48;55.20
4981;BME280;2507;50.392;7.482;2023-04-25T09:40:17;100528.78;;;11.53;55.25
4981;BME280;2507;50.392;7.482;2023-04-25T09:42:43;100528.88;;;11.51;53.77
4981;BME280;2507;50.392;7.482;2023-04-25T09:45:12;100534.22;;;11.39;54.33
4981;BME280;2507;50.392;7.482;2023-04-25T09:47:37;100536.84;;;11.39;54.15
4981;BME280;2507;50.392;7.482;2023-04-25T09:50:13;100532.31;;;11.41;54.81
4981;BME280;2507;50.392;7.482;2023-04-25T09:52:39;100534.88;;;11.64;54.31
4981;BME280;2507;50.392;7.482;2023-04-25T09:55:04;100530.66;;;11.74;53.98
4981;BME280;2507;50.392;7.482;2023-04-25T09:57:31;100538.66;;;11.95;52.98
4981;BME280;2507;50.392;7.482;2023-04-25T09:59:56;100541.28;;;11.84;51.37
4981;BME280;2507;50.392;7.482;2023-04-25T10:02:24;100545.00;;;11.92;52.17
4981;BME280;2507;50.392;7.482;2023-04-25T10:04:51;100542.97;;;12.07;51.50
4981;BME280;2507;50.392;7.482;2023-04-25T10:07:20;100537.94;;;12.15;50.15
4981;BME280;2507;50.392;7.482;2023-04-25T10:09:49;100539.84;;;12.24;50.47
4981;BME280;2507;50.392;7.482;2023-04-25T10:12:17;100539.78;;;12.68;49.41
4981;BME280;2507;50.392;7.482;2023-04-25T10:14:43;100542.75;;;12.75;47.32
4981;BME280;2507;50.392;7.482;2023-04-25T10:17:10;100539.22;;;13.07;47.29
4981;BME280;2507;50.392;7.482;2023-04-25T10:19:36;100545.84;;;13.22;46.09
4981;BME280;2507;50.392;7.482;2023-04-25T10:24:38;100546.53;;;13.36;46.46
4981;BME280;2507;50.392;7.482;2023-04-25T10:27:04;100541.94;;;13.17;44.88
4981;BME280;2507;50.392;7.482;2023-04-25T10:29:30;100546.88;;;13.10;46.94
4981;BME280;2507;50.392;7.482;2023-04-25T10:31:56;100552.63;;;13.57;44.77
4981;BME280;2507;50.392;7.482;2023-04-25T10:34:40;100554.63;;;13.64;43.13
4981;BME280;2507;50.392;7.482;2023-04-25T10:37:08;100561.94;;;13.40;41.05
4981;BME280;2507;50.392;7.482;2023-04-25T10:39:34;100561.28;;;12.84;42.03
4981;BME280;2507;50.392;7.482;2023-04-25T10:42:01;100565.38;;;12.77;42.22
4981;BME280;2507;50.392;7.482;2023-04-25T10:44:31;100567.22;;;12.55;43.58
4981;BME280;2507;50.392;7.482;2023-04-25T10:46:57;100564.56;;;12.66;41.77
4981;BME280;2507;50.392;7.482;2023-04-25T10:52:15;100575.97;;;12.33;43.57
4981;BME280;2507;50.392;7.482;2023-04-25T10:54:46;100577.19;;;12.29;44.72
4981;BME280;2507;50.392;7.482;2023-04-25T10:57:28;100576.66;;;12.68;44.10
4981;BME280;2507;50.392;7.482;2023-04-25T10:59:58;100576.19;;;12.52;44.56
4981;BME280;2507;50.392;7.482;2023-04-25T11:02:26;100580.72;;;12.72;44.57
4981;BME280;2507;50.392;7.482;2023-04-25T11:04:53;100581.75;;;13.03;44.02
4981;BME280;2507;50.392;7.482;2023-04-25T11:07:43;100591.31;;;12.93;45.61
4981;BME280;2507;50.392;7.482;2023-04-25T11:10:09;100589.78;;;12.79;44.91
4981;BME280;2507;50.392;7.482;2023-04-25T11:12:35;100593.44;;;12.56;45.46
4981;BME280;2507;50.392;7.482;2023-04-25T11:15:04;100590.94;;;12.32;45.21
4981;BME280;2507;50.392;7.482;2023-04-25T11:17:30;100589.25;;;12.43;46.98
4981;BME280;2507;50.392;7.482;2023-04-25T11:19:56;100586.22;;;12.69;46.13
4981;BME280;2507;50.392;7.482;2023-04-25T11:22:22;100585.22;;;12.92;46.31
4981;BME280;2507;50.392;7.482;2023-04-25T11:24:47;100586.38;;;13.21;46.15
4981;BME280;2507;50.392;7.482;2023-04-25T11:27:13;100589.53;;;13.04;44.16
4981;BME280;2507;50.392;7.482;2023-04-25T11:29:39;100587.72;;;12.94;44.93
4981;BME280;2507;50.392;7.482;2023-04-25T11:32:04;100593.31;;;13.11;45.20
4981;BME280;2507;50.392;7.482;2023-04-25T11:34:31;100569.16;;;13.38;45.22
4981;BME280;2507;50.392;7.482;2023-04-25T11:36:58;100572.63;;;13.07;43.55
4981;BME280;2507;50.392;7.482;2023-04-25T11:39:24;100573.94;;;13.01;45.21
4981;BME280;2507;50.392;7.482;2023-04-25T11:41:49;100581.09;;;13.21;45.12
4981;BME280;2507;50.392;7.482;2023-04-25T11:44:16;100580.06;;;13.33;44.27
4981;BME280;2507;50.392;7.482;2023-04-25T11:46:42;100575.66;;;13.34;42.99
4981;BME280;2507;50.392;7.482;2023-04-25T11:49:08;100581.41;;;13.28;41.96
4981;BME280;2507;50.392;7.482;2023-04-25T11:51:44;100576.59;;;13.33;42.34
4981;BME280;2507;50.392;7.482;2023-04-25T11:54:10;100573.38;;;13.29;43.54
4981;BME280;2507;50.392;7.482;2023-04-25T11:56:37;100577.38;;;13.13;42.95
4981;BME280;2507;50.392;7.482;2023-04-25T11:59:03;100582.06;;;13.09;42.42
4981;BME280;2507;50.392;7.482;2023-04-25T12:01:31;100593.72;;;12.96;41.63
4981;BME280;2507;50.392;7.482;2023-04-25T12:03:57;100592.53;;;12.89;42.91
4981;BME280;2507;50.392;7.482;2023-04-25T12:06:29;100587.44;;;12.65;42.77
4981;BME280;2507;50.392;7.482;2023-04-25T12:09:04;100593.81;;;13.05;44.76
4981;BME280;2507;50.392;7.482;2023-04-25T12:11:32;100604.31;;;13.16;41.66
4981;BME280;2507;50.392;7.482;2023-04-25T12:14:03;100591.50;;;13.23;42.51
4981;BME280;2507;50.392;7.482;2023-04-25T12:16:39;100595.31;;;13.30;41.03
4981;BME280;2507;50.392;7.482;2023-04-25T12:19:05;100595.25;;;13.41;40.23
4981;BME280;2507;50.392;7.482;2023-04-25T12:21:31;100591.06;;;13.39;40.13
4981;BME280;2507;50.392;7.482;2023-04-25T12:27:02;100595.66;;;13.25;40.64
4981;BME280;2507;50.392;7.482;2023-04-25T12:29:29;100595.97;;;13.11;41.73
4981;BME280;2507;50.392;7.482;2023-04-25T12:31:55;100591.53;;;13.12;39.97
4981;BME280;2507;50.392;7.482;2023-04-25T12:34:22;100600.66;;;12.97;40.41
4981;BME280;2507;50.392;7.482;2023-04-25T12:36:48;100592.31;;;12.81;40.55
4981;BME280;2507;50.392;7.482;2023-04-25T12:39:17;100606.34;;;12.70;41.53
4981;BME280;2507;50.392;7.482;2023-04-25T12:41:44;100607.78;;;12.52;42.01
4981;BME280;2507;50.392;7.482;2023-04-25T12:44:10;100602.75;;;12.60;42.58
4981;BME280;2507;50.392;7.482;2023-04-25T12:46:36;100606.59;;;12.67;41.49
4981;BME280;2507;50.392;7.482;2023-04-25T12:49:01;100605.00;;;12.76;41.83
4981;BME280;2507;50.392;7.482;2023-04-25T12:51:28;100605.59;;;12.79;41.43
4981;BME280;2507;50.392;7.482;2023-04-25T12:53:53;100606.78;;;12.86;42.07
4981;BME280;2507;50.392;7.482;2023-04-25T12:56:19;100621.00;;;12.95;43.28
4981;BME280;2507;50.392;7.482;2023-04-25T12:58:44;100618.63;;;13.03;42.52
4981;BME280;2507;50.392;7.482;2023-04-25T13:01:10;100628.31;;;12.80;42.46
4981;BME280;2507;50.392;7.482;2023-04-25T13:03:37;100632.41;;;12.51;42.81
4981;BME280;2507;50.392;7.482;2023-04-25T13:06:02;100628.25;;;12.26;41.43
4981;BME280;2507;50.392;7.482;2023-04-25T13:08:27;100630.69;;;11.95;41.44
4981;BME280;2507;50.392;7.482;2023-04-25T13:10:52;100638.56;;;11.60;42.24
4981;BME280;2507;50.392;7.482;2023-04-25T13:13:18;100643.22;;;11.57;43.67
4981;BME280;2507;50.392;7.482;2023-04-25T13:15:43;100646.25;;;11.63;44.03
4981;BME280;2507;50.392;7.482;2023-04-25T13:18:08;100648.78;;;11.65;44.35
4981;BME280;2507;50.392;7.482;2023-04-25T13:20:34;100650.25;;;11.69;44.91